sensor_id;sensor_type;location;lat;lon;timestamp;P1;durP1;ratioP1;P2;durP2;ratioP2
13693;SDS011;6919;52.344;14.518;2022-08-25T00:00:16;14.60;;;8.43;;
13693;SDS011;6919;52.344;14.518;2022-08-25T00:02:47;16.80;;;8.60;;
13693;SDS011;6919;52.344;14.518;2022-08-25T00:05:23;14.23;;;8.40;;
13693;SDS011;6919;52.344;14.518;2022-08-25T00:07:54;15.33;;;8.27;;
13693;SDS011;6919;52.344;14.518;2022-08-25T00:10:23;15.37;;;7.83;;
13693;SDS011;6919;52.344;14.518;2022-08-25T00:12:54;17.17;;;8.87;;
13693;SDS011;6919;52.344;14.518;2022-08-25T00:15:22;14.20;;;8.87;;
13693;SDS011;6919;52.344;14.518;2022-08-25T00:17:53;15.40;;;8.80;;
13693;SDS011;6919;52.344;14.518;2022-08-25T00:20:23;13.03;;;8.53;;
13693;SDS011;6919;52.344;14.518;2022-08-25T00:22:53;18.27;;;9.80;;
13693;SDS011;6919;52.344;14.518;2022-08-25T00:25:22;15.87;;;9.40;;
13693;SDS011;6919;52.344;14.518;2022-08-25T00:27:50;16.13;;;9.33;;
13693;SDS011;6919;52.344;14.518;2022-08-25T00:30:18;16.33;;;9.63;;
13693;SDS011;6919;52.344;14.518;2022-08-25T00:32:47;14.40;;;9.03;;
13693;SDS011;6919;52.344;14.518;2022-08-25T00:35:24;15.83;;;8.37;;
13693;SDS011;6919;52.344;14.518;2022-08-25T00:37:53;14.73;;;8.87;;
13693;SDS011;6919;52.344;14.518;2022-08-25T00:40:23;18.47;;;9.33;;
13693;SDS011;6919;52.344;14.518;2022-08-25T00:42:54;16.37;;;9.00;;
13693;SDS011;6919;52.344;14.518;2022-08-25T00:45:22;15.43;;;9.57;;
13693;SDS011;6919;52.344;14.518;2022-08-25T00:47:51;15.67;;;9.93;;
13693;SDS011;6919;52.344;14.518;2022-08-25T00:50:26;16.40;;;9.30;;
13693;SDS011;6919;52.344;14.518;2022-08-25T00:52:58;12.57;;;9.50;;
13693;SDS011;6919;52.344;14.518;2022-08-25T00:55:31;12.37;;;9.80;;
13693;SDS011;6919;52.344;14.518;2022-08-25T00:58:05;15.40;;;10.10;;
13693;SDS011;6919;52.344;14.518;2022-08-25T01:00:41;12.97;;;9.27;;
13693;SDS011;6919;52.344;14.518;2022-08-25T01:03:12;14.10;;;9.80;;
13693;SDS011;6919;52.344;14.518;2022-08-25T01:05:43;16.87;;;9.77;;
13693;SDS011;6919;52.344;14.518;2022-08-25T01:08:13;16.63;;;9.40;;
13693;SDS011;6919;52.344;14.518;2022-08-25T01:10:46;10.53;;;8.77;;
13693;SDS011;6919;52.344;14.518;2022-08-25T01:13:18;14.27;;;9.73;;
13693;SDS011;6919;52.344;14.518;2022-08-25T01:15:53;17.27;;;9.73;;
13693;SDS011;6919;52.344;14.518;2022-08-25T01:18:24;17.77;;;10.07;;
13693;SDS011;6919;52.344;14.518;2022-08-25T01:20:57;15.20;;;9.20;;
13693;SDS011;6919;52.344;14.518;2022-08-25T01:23:26;15.13;;;9.63;;
13693;SDS011;6919;52.344;14.518;2022-08-25T01:25:55;18.17;;;9.70;;
13693;SDS011;6919;52.344;14.518;2022-08-25T01:28:31;14.23;;;9.30;;
13693;SDS011;6919;52.344;14.518;2022-08-25T01:31:00;16.63;;;9.57;;
13693;SDS011;6919;52.344;14.518;2022-08-25T01:33:49;21.40;;;9.70;;
13693;SDS011;6919;52.344;14.518;2022-08-25T01:36:19;13.77;;;9.43;;
13693;SDS011;6919;52.344;14.518;2022-08-25T01:38:48;11.53;;;9.53;;
13693;SDS011;6919;52.344;14.518;2022-08-25T01:41:18;15.40;;;9.40;;
13693;SDS011;6919;52.344;14.518;2022-08-25T01:43:57;13.87;;;9.67;;
13693;SDS011;6919;52.344;14.518;2022-08-25T01:46:26;14.60;;;9.83;;
13693;SDS011;6919;52.344;14.518;2022-08-25T01:48:54;16.67;;;10.40;;
13693;SDS011;6919;52.344;14.518;2022-08-25T01:51:24;13.77;;;9.70;;
13693;SDS011;6919;52.344;14.518;2022-08-25T01:53:59;17.27;;;10.70;;
13693;SDS011;6919;52.344;14.518;2022-08-25T01:56:28;15.00;;;11.00;;
13693;SDS011;6919;52.344;14.518;2022-08-25T01:58:56;17.07;;;10.63;;
13693;SDS011;6919;52.344;14.518;2022-08-25T02:01:24;17.30;;;10.33;;
13693;SDS011;6919;52.344;14.518;2022-08-25T02:03:54;18.57;;;10.23;;
13693;SDS011;6919;52.344;14.518;2022-08-25T02:06:25;15.73;;;10.20;;
13693;SDS011;6919;52.344;14.518;2022-08-25T02:08:59;17.23;;;9.97;;
13693;SDS011;6919;52.344;14.518;2022-08-25T02:11:32;18.47;;;10.97;;
13693;SDS011;6919;52.344;14.518;2022-08-25T02:14:02;15.03;;;10.17;;
13693;SDS011;6919;52.344;14.518;2022-08-25T02:16:33;22.20;;;11.73;;
13693;SDS011;6919;52.344;14.518;2022-08-25T02:19:05;17.33;;;10.53;;
13693;SDS011;6919;52.344;14.518;2022-08-25T02:21:38;16.23;;;9.77;;
13693;SDS011;6919;52.344;14.518;2022-08-25T02:24:07;21.20;;;11.70;;
13693;SDS011;6919;52.344;14.518;2022-08-25T02:26:35;18.47;;;10.90;;
13693;SDS011;6919;52.344;14.518;2022-08-25T02:29:05;16.00;;;10.83;;
13693;SDS011;6919;52.344;14.518;2022-08-25T02:31:34;15.13;;;10.33;;
13693;SDS011;6919;52.344;14.518;2022-08-25T02:34:03;15.87;;;9.50;;
13693;SDS011;6919;52.344;14.518;2022-08-25T02:36:32;16.37;;;9.30;;
13693;SDS011;6919;52.344;14.518;2022-08-25T02:39:03;12.97;;;9.50;;
13693;SDS011;6919;52.344;14.518;2022-08-25T02:41:34;14.43;;;8.60;;
13693;SDS011;6919;52.344;14.518;2022-08-25T02:44:04;13.07;;;9.07;;
13693;SDS011;6919;52.344;14.518;2022-08-25T02:46:35;15.17;;;9.53;;
13693;SDS011;6919;52.344;14.518;2022-08-25T02:49:04;14.47;;;9.77;;
13693;SDS011;6919;52.344;14.518;2022-08-25T02:51:34;16.07;;;9.77;;
13693;SDS011;6919;52.344;14.518;2022-08-25T02:54:04;20.83;;;10.80;;
13693;SDS011;6919;52.344;14.518;2022-08-25T02:56:33;17.10;;;11.00;;
13693;SDS011;6919;52.344;14.518;2022-08-25T02:59:01;15.47;;;11.20;;
13693;SDS011;6919;52.344;14.518;2022-08-25T03:01:31;16.73;;;10.73;;
13693;SDS011;6919;52.344;14.518;2022-08-25T03:03:59;19.13;;;11.13;;
13693;SDS011;6919;52.344;14.518;2022-08-25T03:06:29;17.07;;;10.73;;
13693;SDS011;6919;52.344;14.518;2022-08-25T03:08:57;14.03;;;10.20;;
13693;SDS011;6919;52.344;14.518;2022-08-25T03:11:28;13.33;;;9.40;;
13693;SDS011;6919;52.344;14.518;2022-08-25T03:13:56;19.30;;;11.27;;
13693;SDS011;6919;52.344;14.518;2022-08-25T03:16:25;18.07;;;10.67;;
13693;SDS011;6919;52.344;14.518;2022-08-25T03:18:53;14.43;;;10.37;;
13693;SDS011;6919;52.344;14.518;2022-08-25T03:21:23;16.30;;;10.90;;
13693;SDS011;6919;52.344;14.518;2022-08-25T03:23:51;14.60;;;9.83;;
13693;SDS011;6919;52.344;14.518;2022-08-25T03:26:19;18.40;;;10.77;;
13693;SDS011;6919;52.344;14.518;2022-08-25T03:29:07;19.73;;;11.53;;
13693;SDS011;6919;52.344;14.518;2022-08-25T03:31:36;17.30;;;10.90;;
13693;SDS011;6919;52.344;14.518;2022-08-25T03:34:05;14.20;;;10.77;;
13693;SDS011;6919;52.344;14.518;2022-08-25T03:36:34;22.13;;;12.53;;
13693;SDS011;6919;52.344;14.518;2022-08-25T03:39:03;19.77;;;12.33;;
13693;SDS011;6919;52.344;14.518;2022-08-25T03:41:33;25.10;;;13.20;;
13693;SDS011;6919;52.344;14.518;2022-08-25T03:44:02;19.27;;;12.90;;
13693;SDS011;6919;52.344;14.518;2022-08-25T03:46:37;17.13;;;12.90;;
13693;SDS011;6919;52.344;14.518;2022-08-25T03:49:08;21.33;;;13.80;;
13693;SDS011;6919;52.344;14.518;2022-08-25T03:51:40;23.90;;;14.07;;
13693;SDS011;6919;52.344;14.518;2022-08-25T03:54:15;20.10;;;13.73;;
13693;SDS011;6919;52.344;14.518;2022-08-25T03:56:46;16.63;;;13.30;;
13693;SDS011;6919;52.344;14.518;2022-08-25T03:59:16;26.90;;;16.00;;
13693;SDS011;6919;52.344;14.518;2022-08-25T04:01:46;20.40;;;14.87;;
13693;SDS011;6919;52.344;14.518;2022-08-25T04:04:20;17.87;;;14.43;;
13693;SDS011;6919;52.344;14.518;2022-08-25T04:06:49;19.83;;;14.80;;
13693;SDS011;6919;52.344;14.518;2022-08-25T04:09:18;20.67;;;15.13;;
13693;SDS011;6919;52.344;14.518;2022-08-25T04:11:46;26.03;;;16.37;;
13693;SDS011;6919;52.344;14.518;2022-08-25T04:14:18;18.13;;;15.23;;
13693;SDS011;6919;52.344;14.518;2022-08-25T04:16:50;20.50;;;14.60;;
13693;SDS011;6919;52.344;14.518;2022-08-25T04:19:19;21.67;;;15.87;;
13693;SDS011;6919;52.344;14.518;2022-08-25T04:21:48;25.27;;;15.23;;
13693;SDS011;6919;52.344;14.518;2022-08-25T04:24:22;27.23;;;15.63;;
13693;SDS011;6919;52.344;14.518;2022-08-25T04:26:50;26.80;;;17.43;;
13693;SDS011;6919;52.344;14.518;2022-08-25T04:29:19;26.57;;;17.60;;
13693;SDS011;6919;52.344;14.518;2022-08-25T04:31:52;31.33;;;18.50;;
13693;SDS011;6919;52.344;14.518;2022-08-25T04:34:22;35.10;;;21.07;;
13693;SDS011;6919;52.344;14.518;2022-08-25T04:36:56;35.97;;;20.07;;
13693;SDS011;6919;52.344;14.518;2022-08-25T04:39:26;27.73;;;19.67;;
13693;SDS011;6919;52.344;14.518;2022-08-25T04:41:55;27.13;;;18.87;;
13693;SDS011;6919;52.344;14.518;2022-08-25T04:44:25;29.17;;;18.93;;
13693;SDS011;6919;52.344;14.518;2022-08-25T04:46:55;28.03;;;19.43;;
13693;SDS011;6919;52.344;14.518;2022-08-25T04:49:24;29.00;;;19.17;;
13693;SDS011;6919;52.344;14.518;2022-08-25T04:51:53;30.80;;;18.40;;
13693;SDS011;6919;52.344;14.518;2022-08-25T04:54:22;30.67;;;18.53;;
13693;SDS011;6919;52.344;14.518;2022-08-25T04:56:51;27.73;;;19.03;;
13693;SDS011;6919;52.344;14.518;2022-08-25T04:59:24;27.10;;;18.03;;
13693;SDS011;6919;52.344;14.518;2022-08-25T05:01:57;30.87;;;18.50;;
13693;SDS011;6919;52.344;14.518;2022-08-25T05:04:28;30.87;;;19.03;;
13693;SDS011;6919;52.344;14.518;2022-08-25T05:06:58;30.80;;;19.73;;
13693;SDS011;6919;52.344;14.518;2022-08-25T05:09:27;29.53;;;19.17;;
13693;SDS011;6919;52.344;14.518;2022-08-25T05:11:58;32.47;;;19.40;;
13693;SDS011;6919;52.344;14.518;2022-08-25T05:14:28;32.17;;;19.93;;
13693;SDS011;6919;52.344;14.518;2022-08-25T05:16:58;32.50;;;19.27;;
13693;SDS011;6919;52.344;14.518;2022-08-25T05:19:27;34.03;;;19.30;;
13693;SDS011;6919;52.344;14.518;2022-08-25T05:21:55;28.33;;;18.37;;
13693;SDS011;6919;52.344;14.518;2022-08-25T05:24:23;28.77;;;18.37;;
13693;SDS011;6919;52.344;14.518;2022-08-25T05:26:53;26.90;;;17.90;;
13693;SDS011;6919;52.344;14.518;2022-08-25T05:29:22;27.93;;;17.43;;
13693;SDS011;6919;52.344;14.518;2022-08-25T05:31:50;29.43;;;17.70;;
13693;SDS011;6919;52.344;14.518;2022-08-25T05:34:22;30.17;;;18.17;;
13693;SDS011;6919;52.344;14.518;2022-08-25T05:36:50;30.57;;;16.83;;
13693;SDS011;6919;52.344;14.518;2022-08-25T05:39:19;26.30;;;16.93;;
13693;SDS011;6919;52.344;14.518;2022-08-25T05:41:49;28.17;;;18.17;;
13693;SDS011;6919;52.344;14.518;2022-08-25T05:44:17;29.43;;;17.07;;
13693;SDS011;6919;52.344;14.518;2022-08-25T05:46:46;29.23;;;17.87;;
13693;SDS011;6919;52.344;14.518;2022-08-25T05:49:16;29.07;;;17.47;;
13693;SDS011;6919;52.344;14.518;2022-08-25T05:51:46;25.47;;;16.47;;
13693;SDS011;6919;52.344;14.518;2022-08-25T05:54:14;25.63;;;17.53;;
13693;SDS011;6919;52.344;14.518;2022-08-25T05:56:42;37.57;;;19.67;;
13693;SDS011;6919;52.344;14.518;2022-08-25T05:59:11;38.90;;;20.57;;
13693;SDS011;6919;52.344;14.518;2022-08-25T06:01:40;31.17;;;19.43;;
13693;SDS011;6919;52.344;14.518;2022-08-25T06:04:25;34.07;;;19.13;;
13693;SDS011;6919;52.344;14.518;2022-08-25T06:06:55;31.40;;;18.37;;
13693;SDS011;6919;52.344;14.518;2022-08-25T06:09:23;24.50;;;16.53;;
13693;SDS011;6919;52.344;14.518;2022-08-25T06:11:52;28.40;;;16.03;;
13693;SDS011;6919;52.344;14.518;2022-08-25T06:14:21;27.90;;;16.30;;
13693;SDS011;6919;52.344;14.518;2022-08-25T06:16:50;28.53;;;15.57;;
13693;SDS011;6919;52.344;14.518;2022-08-25T06:19:18;25.37;;;15.30;;
13693;SDS011;6919;52.344;14.518;2022-08-25T06:21:48;21.83;;;14.50;;
13693;SDS011;6919;52.344;14.518;2022-08-25T06:24:23;24.90;;;13.83;;
13693;SDS011;6919;52.344;14.518;2022-08-25T06:26:53;22.53;;;13.93;;
13693;SDS011;6919;52.344;14.518;2022-08-25T06:29:22;20.40;;;14.33;;
13693;SDS011;6919;52.344;14.518;2022-08-25T06:31:50;20.17;;;14.30;;
13693;SDS011;6919;52.344;14.518;2022-08-25T06:34:19;25.60;;;14.40;;
13693;SDS011;6919;52.344;14.518;2022-08-25T06:36:49;22.70;;;15.10;;
13693;SDS011;6919;52.344;14.518;2022-08-25T06:39:18;20.97;;;14.23;;
13693;SDS011;6919;52.344;14.518;2022-08-25T06:41:51;19.17;;;14.70;;
13693;SDS011;6919;52.344;14.518;2022-08-25T06:44:20;20.97;;;14.13;;
13693;SDS011;6919;52.344;14.518;2022-08-25T06:46:51;20.03;;;14.27;;
13693;SDS011;6919;52.344;14.518;2022-08-25T06:49:20;21.10;;;15.00;;
13693;SDS011;6919;52.344;14.518;2022-08-25T06:51:48;20.63;;;14.13;;
13693;SDS011;6919;52.344;14.518;2022-08-25T06:54:17;20.63;;;15.37;;
13693;SDS011;6919;52.344;14.518;2022-08-25T06:56:45;24.87;;;14.80;;
13693;SDS011;6919;52.344;14.518;2022-08-25T06:59:16;21.50;;;14.57;;
13693;SDS011;6919;52.344;14.518;2022-08-25T07:01:45;23.73;;;15.57;;
13693;SDS011;6919;52.344;14.518;2022-08-25T07:04:15;21.77;;;15.80;;
13693;SDS011;6919;52.344;14.518;2022-08-25T07:06:43;24.60;;;15.83;;
13693;SDS011;6919;52.344;14.518;2022-08-25T07:09:12;22.40;;;14.67;;
13693;SDS011;6919;52.344;14.518;2022-08-25T07:11:41;20.30;;;15.33;;
13693;SDS011;6919;52.344;14.518;2022-08-25T07:14:11;21.60;;;14.80;;
13693;SDS011;6919;52.344;14.518;2022-08-25T07:16:43;23.37;;;15.10;;
13693;SDS011;6919;52.344;14.518;2022-08-25T07:19:15;19.27;;;14.30;;
13693;SDS011;6919;52.344;14.518;2022-08-25T07:21:47;20.57;;;14.43;;
13693;SDS011;6919;52.344;14.518;2022-08-25T07:24:19;24.60;;;15.00;;
13693;SDS011;6919;52.344;14.518;2022-08-25T07:26:49;21.37;;;14.73;;
13693;SDS011;6919;52.344;14.518;2022-08-25T07:29:18;21.67;;;14.57;;
13693;SDS011;6919;52.344;14.518;2022-08-25T07:31:59;23.37;;;13.60;;
13693;SDS011;6919;52.344;14.518;2022-08-25T07:34:28;21.97;;;13.57;;
13693;SDS011;6919;52.344;14.518;2022-08-25T07:37:18;18.57;;;13.63;;
13693;SDS011;6919;52.344;14.518;2022-08-25T07:40:08;20.27;;;12.93;;
13693;SDS011;6919;52.344;14.518;2022-08-25T07:42:40;18.77;;;12.83;;
13693;SDS011;6919;52.344;14.518;2022-08-25T07:45:08;18.60;;;12.67;;
13693;SDS011;6919;52.344;14.518;2022-08-25T07:47:39;20.10;;;13.03;;
13693;SDS011;6919;52.344;14.518;2022-08-25T07:50:08;18.03;;;12.70;;
13693;SDS011;6919;52.344;14.518;2022-08-25T07:52:39;17.83;;;12.60;;
13693;SDS011;6919;52.344;14.518;2022-08-25T07:55:08;18.50;;;13.47;;
13693;SDS011;6919;52.344;14.518;2022-08-25T07:57:37;19.43;;;13.80;;
13693;SDS011;6919;52.344;14.518;2022-08-25T08:00:06;23.87;;;13.90;;
13693;SDS011;6919;52.344;14.518;2022-08-25T08:02:36;19.17;;;13.83;;
13693;SDS011;6919;52.344;14.518;2022-08-25T08:05:07;17.90;;;13.37;;
13693;SDS011;6919;52.344;14.518;2022-08-25T08:07:37;19.03;;;14.93;;
13693;SDS011;6919;52.344;14.518;2022-08-25T08:10:09;18.87;;;13.90;;
13693;SDS011;6919;52.344;14.518;2022-08-25T08:13:01;17.53;;;14.43;;
13693;SDS011;6919;52.344;14.518;2022-08-25T08:15:32;20.47;;;13.40;;
13693;SDS011;6919;52.344;14.518;2022-08-25T08:18:02;22.63;;;14.13;;
13693;SDS011;6919;52.344;14.518;2022-08-25T08:20:34;18.57;;;12.30;;
13693;SDS011;6919;52.344;14.518;2022-08-25T08:23:08;18.60;;;12.43;;
13693;SDS011;6919;52.344;14.518;2022-08-25T08:25:36;14.73;;;12.27;;
13693;SDS011;6919;52.344;14.518;2022-08-25T08:28:05;15.97;;;11.50;;
13693;SDS011;6919;52.344;14.518;2022-08-25T08:30:36;15.93;;;12.27;;
13693;SDS011;6919;52.344;14.518;2022-08-25T08:33:04;17.10;;;11.23;;
13693;SDS011;6919;52.344;14.518;2022-08-25T08:35:38;14.07;;;11.07;;
13693;SDS011;6919;52.344;14.518;2022-08-25T08:38:07;16.83;;;10.73;;
13693;SDS011;6919;52.344;14.518;2022-08-25T08:40:46;13.60;;;10.03;;
13693;SDS011;6919;52.344;14.518;2022-08-25T08:43:50;12.57;;;10.67;;
13693;SDS011;6919;52.344;14.518;2022-08-25T08:46:29;15.33;;;10.30;;
13693;SDS011;6919;52.344;14.518;2022-08-25T08:49:13;14.47;;;10.50;;
13693;SDS011;6919;52.344;14.518;2022-08-25T08:51:57;17.37;;;9.60;;
13693;SDS011;6919;52.344;14.518;2022-08-25T08:54:30;19.47;;;9.30;;
13693;SDS011;6919;52.344;14.518;2022-08-25T08:57:08;16.03;;;9.67;;
13693;SDS011;6919;52.344;14.518;2022-08-25T08:59:45;15.20;;;9.20;;
13693;SDS011;6919;52.344;14.518;2022-08-25T09:02:22;11.93;;;9.03;;
13693;SDS011;6919;52.344;14.518;2022-08-25T09:05:17;11.63;;;8.97;;
13693;SDS011;6919;52.344;14.518;2022-08-25T09:07:52;10.63;;;8.33;;
13693;SDS011;6919;52.344;14.518;2022-08-25T09:10:25;14.50;;;9.40;;
13693;SDS011;6919;52.344;14.518;2022-08-25T09:13:07;14.43;;;8.97;;
13693;SDS011;6919;52.344;14.518;2022-08-25T09:15:53;13.27;;;8.10;;
13693;SDS011;6919;52.344;14.518;2022-08-25T09:19:02;11.63;;;7.93;;
13693;SDS011;6919;52.344;14.518;2022-08-25T09:21:50;11.20;;;7.50;;
13693;SDS011;6919;52.344;14.518;2022-08-25T09:24:52;12.33;;;7.40;;
13693;SDS011;6919;52.344;14.518;2022-08-25T09:27:36;14.87;;;6.80;;
13693;SDS011;6919;52.344;14.518;2022-08-25T09:30:14;13.57;;;7.60;;
13693;SDS011;6919;52.344;14.518;2022-08-25T09:32:47;14.23;;;7.27;;
13693;SDS011;6919;52.344;14.518;2022-08-25T09:35:19;14.27;;;7.70;;
13693;SDS011;6919;52.344;14.518;2022-08-25T09:37:55;16.30;;;7.93;;
13693;SDS011;6919;52.344;14.518;2022-08-25T09:40:28;19.77;;;8.33;;
13693;SDS011;6919;52.344;14.518;2022-08-25T09:43:00;13.60;;;6.63;;
13693;SDS011;6919;52.344;14.518;2022-08-25T09:45:36;17.70;;;7.33;;
13693;SDS011;6919;52.344;14.518;2022-08-25T09:48:22;16.60;;;8.50;;
13693;SDS011;6919;52.344;14.518;2022-08-25T09:50:56;16.03;;;7.33;;
13693;SDS011;6919;52.344;14.518;2022-08-25T09:53:30;13.70;;;7.43;;
13693;SDS011;6919;52.344;14.518;2022-08-25T09:56:02;11.97;;;7.10;;
13693;SDS011;6919;52.344;14.518;2022-08-25T09:58:33;13.13;;;6.73;;
13693;SDS011;6919;52.344;14.518;2022-08-25T10:01:06;12.87;;;6.67;;
13693;SDS011;6919;52.344;14.518;2022-08-25T10:03:57;14.47;;;6.47;;
13693;SDS011;6919;52.344;14.518;2022-08-25T10:06:32;10.67;;;6.10;;
13693;SDS011;6919;52.344;14.518;2022-08-25T10:09:11;14.00;;;6.57;;
13693;SDS011;6919;52.344;14.518;2022-08-25T10:11:53;12.20;;;6.13;;
13693;SDS011;6919;52.344;14.518;2022-08-25T10:14:27;12.93;;;6.57;;
13693;SDS011;6919;52.344;14.518;2022-08-25T10:17:11;15.13;;;6.03;;
13693;SDS011;6919;52.344;14.518;2022-08-25T10:19:53;19.97;;;6.17;;
13693;SDS011;6919;52.344;14.518;2022-08-25T10:22:42;13.47;;;5.60;;
13693;SDS011;6919;52.344;14.518;2022-08-25T10:25:16;13.27;;;5.70;;
13693;SDS011;6919;52.344;14.518;2022-08-25T10:28:02;11.00;;;5.63;;
13693;SDS011;6919;52.344;14.518;2022-08-25T10:30:47;12.57;;;5.27;;
13693;SDS011;6919;52.344;14.518;2022-08-25T10:33:36;13.13;;;5.67;;
13693;SDS011;6919;52.344;14.518;2022-08-25T10:36:25;12.27;;;5.37;;
13693;SDS011;6919;52.344;14.518;2022-08-25T10:39:16;15.57;;;6.43;;
13693;SDS011;6919;52.344;14.518;2022-08-25T10:42:19;19.20;;;6.03;;
13693;SDS011;6919;52.344;14.518;2022-08-25T10:45:13;15.73;;;5.83;;
13693;SDS011;6919;52.344;14.518;2022-08-25T10:51:18;20.73;;;6.63;;
13693;SDS011;6919;52.344;14.518;2022-08-25T10:54:19;25.37;;;6.23;;
13693;SDS011;6919;52.344;14.518;2022-08-25T10:57:10;18.20;;;5.80;;
13693;SDS011;6919;52.344;14.518;2022-08-25T10:59:59;12.93;;;5.97;;
13693;SDS011;6919;52.344;14.518;2022-08-25T11:02:53;13.03;;;5.30;;
13693;SDS011;6919;52.344;14.518;2022-08-25T11:05:40;16.23;;;6.80;;
13693;SDS011;6919;52.344;14.518;2022-08-25T11:08:14;13.73;;;6.93;;
13693;SDS011;6919;52.344;14.518;2022-08-25T11:10:51;14.57;;;6.63;;
13693;SDS011;6919;52.344;14.518;2022-08-25T11:13:27;12.83;;;6.30;;
13693;SDS011;6919;52.344;14.518;2022-08-25T11:16:12;13.07;;;6.00;;
13693;SDS011;6919;52.344;14.518;2022-08-25T11:18:50;12.73;;;6.83;;
13693;SDS011;6919;52.344;14.518;2022-08-25T11:21:32;12.80;;;6.03;;
13693;SDS011;6919;52.344;14.518;2022-08-25T11:24:21;13.93;;;7.07;;
13693;SDS011;6919;52.344;14.518;2022-08-25T11:27:08;13.33;;;6.87;;
13693;SDS011;6919;52.344;14.518;2022-08-25T11:29:48;15.20;;;6.37;;
13693;SDS011;6919;52.344;14.518;2022-08-25T11:32:31;14.70;;;7.70;;
13693;SDS011;6919;52.344;14.518;2022-08-25T11:35:03;10.07;;;7.87;;
13693;SDS011;6919;52.344;14.518;2022-08-25T11:37:40;12.87;;;7.90;;
13693;SDS011;6919;52.344;14.518;2022-08-25T11:43:41;18.70;;;7.93;;
13693;SDS011;6919;52.344;14.518;2022-08-25T11:46:35;17.33;;;8.27;;
13693;SDS011;6919;52.344;14.518;2022-08-25T11:49:27;14.70;;;8.13;;
13693;SDS011;6919;52.344;14.518;2022-08-25T11:55:20;17.83;;;8.10;;
13693;SDS011;6919;52.344;14.518;2022-08-25T11:58:14;19.20;;;9.23;;
13693;SDS011;6919;52.344;14.518;2022-08-25T12:01:00;14.87;;;8.93;;
13693;SDS011;6919;52.344;14.518;2022-08-25T12:03:46;18.13;;;9.87;;
13693;SDS011;6919;52.344;14.518;2022-08-25T12:10:09;17.93;;;10.00;;
13693;SDS011;6919;52.344;14.518;2022-08-25T12:12:58;21.93;;;10.80;;
13693;SDS011;6919;52.344;14.518;2022-08-25T12:15:55;18.10;;;10.13;;
13693;SDS011;6919;52.344;14.518;2022-08-25T12:18:38;17.83;;;9.97;;
13693;SDS011;6919;52.344;14.518;2022-08-25T12:21:12;15.87;;;10.40;;
13693;SDS011;6919;52.344;14.518;2022-08-25T12:24:11;16.10;;;10.87;;
13693;SDS011;6919;52.344;14.518;2022-08-25T12:26:57;18.70;;;11.07;;
13693;SDS011;6919;52.344;14.518;2022-08-25T12:29:32;15.77;;;11.13;;
13693;SDS011;6919;52.344;14.518;2022-08-25T12:32:14;20.13;;;11.33;;
13693;SDS011;6919;52.344;14.518;2022-08-25T12:37:59;15.13;;;10.23;;
13693;SDS011;6919;52.344;14.518;2022-08-25T12:40:35;18.63;;;11.07;;
13693;SDS011;6919;52.344;14.518;2022-08-25T12:43:24;19.50;;;11.13;;
13693;SDS011;6919;52.344;14.518;2022-08-25T12:49:04;14.88;;;10.80;;
13693;SDS011;6919;52.344;14.518;2022-08-25T12:51:56;12.73;;;10.15;;
13693;SDS011;6919;52.344;14.518;2022-08-25T12:54:37;16.58;;;10.27;;
13693;SDS011;6919;52.344;14.518;2022-08-25T13:00:13;17.58;;;9.60;;
13693;SDS011;6919;52.344;14.518;2022-08-25T13:06:08;14.77;;;9.40;;
13693;SDS011;6919;52.344;14.518;2022-08-25T13:12:16;18.40;;;9.80;;
13693;SDS011;6919;52.344;14.518;2022-08-25T13:14:51;17.30;;;9.23;;
13693;SDS011;6919;52.344;14.518;2022-08-25T13:17:27;15.18;;;8.15;;
13693;SDS011;6919;52.344;14.518;2022-08-25T13:20:11;15.50;;;7.85;;
13693;SDS011;6919;52.344;14.518;2022-08-25T13:22:43;16.38;;;8.65;;
13693;SDS011;6919;52.344;14.518;2022-08-25T13:25:14;14.90;;;7.47;;
13693;SDS011;6919;52.344;14.518;2022-08-25T13:27:59;7.95;;;7.15;;
13693;SDS011;6919;52.344;14.518;2022-08-25T13:30:31;14.45;;;7.75;;
13693;SDS011;6919;52.344;14.518;2022-08-25T13:33:15;13.70;;;7.38;;
13693;SDS011;6919;52.344;14.518;2022-08-25T13:35:47;13.85;;;7.45;;
13693;SDS011;6919;52.344;14.518;2022-08-25T13:38:39;11.00;;;7.63;;
13693;SDS011;6919;52.344;14.518;2022-08-25T13:41:15;14.43;;;7.53;;
13693;SDS011;6919;52.344;14.518;2022-08-25T13:43:54;14.90;;;8.35;;
13693;SDS011;6919;52.344;14.518;2022-08-25T13:46:27;13.85;;;7.00;;
13693;SDS011;6919;52.344;14.518;2022-08-25T13:49:02;14.02;;;6.68;;
13693;SDS011;6919;52.344;14.518;2022-08-25T13:51:34;12.65;;;6.90;;
13693;SDS011;6919;52.344;14.518;2022-08-25T13:54:05;11.68;;;7.07;;
13693;SDS011;6919;52.344;14.518;2022-08-25T13:56:36;15.48;;;7.90;;
13693;SDS011;6919;52.344;14.518;2022-08-25T13:59:17;16.25;;;8.13;;
13693;SDS011;6919;52.344;14.518;2022-08-25T14:01:51;12.50;;;7.43;;
13693;SDS011;6919;52.344;14.518;2022-08-25T14:04:24;12.23;;;7.15;;
13693;SDS011;6919;52.344;14.518;2022-08-25T14:07:05;11.10;;;7.18;;
13693;SDS011;6919;52.344;14.518;2022-08-25T14:09:47;13.48;;;7.05;;
13693;SDS011;6919;52.344;14.518;2022-08-25T14:12:25;14.20;;;6.40;;
13693;SDS011;6919;52.344;14.518;2022-08-25T14:14:59;14.68;;;6.85;;
13693;SDS011;6919;52.344;14.518;2022-08-25T14:17:33;8.70;;;6.30;;
13693;SDS011;6919;52.344;14.518;2022-08-25T14:20:14;10.77;;;6.40;;
13693;SDS011;6919;52.344;14.518;2022-08-25T14:22:48;9.98;;;6.20;;
13693;SDS011;6919;52.344;14.518;2022-08-25T14:25:23;9.98;;;6.68;;
13693;SDS011;6919;52.344;14.518;2022-08-25T14:27:55;13.10;;;6.20;;
13693;SDS011;6919;52.344;14.518;2022-08-25T14:30:39;8.73;;;6.05;;
13693;SDS011;6919;52.344;14.518;2022-08-25T14:33:13;7.07;;;6.03;;
13693;SDS011;6919;52.344;14.518;2022-08-25T14:35:46;15.00;;;6.15;;
13693;SDS011;6919;52.344;14.518;2022-08-25T14:38:19;11.00;;;6.57;;
13693;SDS011;6919;52.344;14.518;2022-08-25T14:40:48;8.48;;;6.40;;
13693;SDS011;6919;52.344;14.518;2022-08-25T14:43:17;10.80;;;6.22;;
13693;SDS011;6919;52.344;14.518;2022-08-25T14:45:49;9.75;;;5.60;;
13693;SDS011;6919;52.344;14.518;2022-08-25T14:48:21;10.80;;;5.40;;
13693;SDS011;6919;52.344;14.518;2022-08-25T14:50:57;9.48;;;4.85;;
13693;SDS011;6919;52.344;14.518;2022-08-25T14:53:27;15.30;;;5.82;;
13693;SDS011;6919;52.344;14.518;2022-08-25T14:55:55;11.15;;;5.18;;
13693;SDS011;6919;52.344;14.518;2022-08-25T14:58:24;8.15;;;5.32;;
13693;SDS011;6919;52.344;14.518;2022-08-25T15:00:59;9.25;;;5.43;;
13693;SDS011;6919;52.344;14.518;2022-08-25T15:03:30;12.70;;;5.68;;
13693;SDS011;6919;52.344;14.518;2022-08-25T15:06:04;11.13;;;5.60;;
13693;SDS011;6919;52.344;14.518;2022-08-25T15:08:36;7.07;;;5.03;;
13693;SDS011;6919;52.344;14.518;2022-08-25T15:11:22;7.03;;;4.57;;
13693;SDS011;6919;52.344;14.518;2022-08-25T15:13:54;12.13;;;5.25;;
13693;SDS011;6919;52.344;14.518;2022-08-25T15:16:24;8.70;;;4.82;;
13693;SDS011;6919;52.344;14.518;2022-08-25T15:19:00;8.35;;;5.03;;
13693;SDS011;6919;52.344;14.518;2022-08-25T15:21:34;9.00;;;5.00;;
13693;SDS011;6919;52.344;14.518;2022-08-25T15:24:05;9.55;;;5.38;;
13693;SDS011;6919;52.344;14.518;2022-08-25T15:26:37;8.05;;;4.85;;
13693;SDS011;6919;52.344;14.518;2022-08-25T15:29:11;15.35;;;5.95;;
13693;SDS011;6919;52.344;14.518;2022-08-25T15:31:40;14.45;;;5.05;;
13693;SDS011;6919;52.344;14.518;2022-08-25T15:34:10;11.88;;;4.65;;
13693;SDS011;6919;52.344;14.518;2022-08-25T15:36:40;7.05;;;4.57;;
13693;SDS011;6919;52.344;14.518;2022-08-25T15:39:09;9.18;;;5.15;;